Time;durP1;ratioP1;P1;durP2;ratioP2;P2;SDS_P1;SDS_P2;PMS_P1;PMS_P2;Temp;Humidity;BMP_temperature;BMP_pressure;BME280_temperature;BME280_humidity;BME280_pressure;Samples;Min_cycle;Max_cycle;Signal;HPM_P1;HPM_P2
2022/03/27 00:00:51;;;;;;;12.77;6.50;;;;;;;;;;5053209;28;20102;-76
2022/03/27 00:03:17;;;;;;;12.63;5.57;;;;;;;;;;5069701;28;20029;-76
2022/03/27 00:05:44;;;;;;;8.37;4.30;;;;;;;;;;5070752;28;20023;-76
2022/03/27 00:08:11;;;;;;;8.07;4.67;;;;;;;;;;5074626;28;20024;-76
2022/03/27 00:13:42;;;;;;;11.70;4.03;;;;;;;;;;5012426;28;20541;-76
2022/03/27 00:16:09;;;;;;;11.63;3.93;;;;;;;;;;5000200;28;20152;-76
2022/03/27 00:18:37;;;;;;;9.23;3.57;;;;;;;;;;5019004;28;20099;-77
2022/03/27 00:21:06;;;;;;;12.50;3.90;;;;;;;;;;5048854;28;20029;-77
2022/03/27 00:23:33;;;;;;;9.63;4.17;;;;;;;;;;5048435;28;20032;-77
2022/03/27 00:26:00;;;;;;;10.70;4.43;;;;;;;;;;5048862;28;20023;-76
2022/03/27 00:28:31;;;;;;;5.50;2.63;;;;;;;;;;5051254;28;20087;-76
2022/03/27 00:31:00;;;;;;;6.97;2.50;;;;;;;;;;5054535;28;20102;-77
2022/03/27 00:33:26;;;;;;;8.23;2.00;;;;;;;;;;5074167;28;20029;-77
2022/03/27 00:35:54;;;;;;;6.23;1.97;;;;;;;;;;5073908;28;20033;-77
2022/03/27 00:38:21;;;;;;;5.23;2.43;;;;;;;;;;5074049;28;20025;-77
2022/03/27 00:40:49;;;;;;;10.90;2.80;;;;;;;;;;5071244;28;20044;-76
2022/03/27 00:43:16;;;;;;;8.97;2.73;;;;;;;;;;5068530;28;20438;-77
2022/03/27 00:45:43;;;;;;;5.23;2.10;;;;;;;;;;5068628;28;20021;-77
2022/03/27 00:48:12;;;;;;;9.50;2.77;;;;;;;;;;5061288;28;20049;-76
2022/03/27 00:50:38;;;;;;;5.03;1.80;;;;;;;;;;5050520;28;20078;-76
2022/03/27 00:53:05;;;;;;;5.73;1.87;;;;;;;;;;5053691;28;20025;-76
2022/03/27 00:55:32;;;;;;;9.67;1.80;;;;;;;;;;5053232;28;20099;-77
2022/03/27 00:58:01;;;;;;;8.93;2.73;;;;;;;;;;5053637;28;20021;-76
2022/03/27 01:00:46;;;;;;;6.77;2.57;;;;;;;;;;5053497;28;20472;-76
2022/03/27 01:03:12;;;;;;;6.40;1.95;;;;;;;;;;5050528;28;20036;-76
2022/03/27 01:05:39;;;;;;;7.13;2.70;;;;;;;;;;5062386;28;20086;-76
2022/03/27 01:08:09;;;;;;;21.23;2.97;;;;;;;;;;5067706;28;20080;-76
2022/03/27 01:10:36;;;;;;;6.17;2.83;;;;;;;;;;5067774;28;20414;-76
2022/03/27 01:13:04;;;;;;;5.20;2.33;;;;;;;;;;5070075;28;20028;-76
2022/03/27 01:15:32;;;;;;;15.57;4.13;;;;;;;;;;5073114;28;20108;-76
2022/03/27 01:17:58;;;;;;;11.30;2.17;;;;;;;;;;5073189;28;20097;-76
2022/03/27 01:20:43;;;;;;;7.17;1.67;;;;;;;;;;5069435;28;20032;-76
2022/03/27 01:23:13;;;;;;;10.73;1.90;;;;;;;;;;5053080;28;20044;-76
2022/03/27 01:25:42;;;;;;;5.30;1.90;;;;;;;;;;5049906;28;20033;-76
2022/03/27 01:28:09;;;;;;;8.40;2.40;;;;;;;;;;5047895;28;20021;-75
2022/03/27 01:30:37;;;;;;;6.80;1.93;;;;;;;;;;5047791;28;20025;-76
2022/03/27 01:33:05;;;;;;;11.17;2.43;;;;;;;;;;5047678;28;20040;-75
2022/03/27 01:35:33;;;;;;;6.20;2.87;;;;;;;;;;5050412;28;20029;-76
2022/03/27 01:37:59;;;;;;;9.87;3.73;;;;;;;;;;5062388;28;20032;-75
2022/03/27 01:40:26;;;;;;;6.70;2.20;;;;;;;;;;5072697;28;20099;-76
2022/03/27 01:42:55;;;;;;;8.60;3.23;;;;;;;;;;5072615;28;20082;-75
2022/03/27 01:45:23;;;;;;;7.80;2.53;;;;;;;;;;5072739;28;20062;-75
2022/03/27 01:47:49;;;;;;;8.77;3.07;;;;;;;;;;5069984;28;20060;-75
2022/03/27 01:50:16;;;;;;;5.13;2.27;;;;;;;;;;5067191;28;20048;-77
2022/03/27 01:52:43;;;;;;;10.30;2.30;;;;;;;;;;5067484;28;20104;-76
2022/03/27 01:55:16;;;;;;;3.90;1.73;;;;;;;;;;5050361;28;20029;-76
2022/03/27 01:57:43;;;;;;;5.67;2.03;;;;;;;;;;5049600;28;20052;-76
2022/03/27 02:00:11;;;;;;;5.10;2.30;;;;;;;;;;5052609;28;20021;-76
2022/03/27 02:02:37;;;;;;;4.93;1.67;;;;;;;;;;5056870;28;20035;-75
2022/03/27 02:05:04;;;;;;;5.73;1.50;;;;;;;;;;5072306;28;20028;-76
2022/03/27 02:07:45;;;;;;;4.30;2.13;;;;;;;;;;5072417;28;20100;-76
2022/03/27 02:10:11;;;;;;;9.43;2.30;;;;;;;;;;5069469;28;20035;-76
2022/03/27 02:12:38;;;;;;;7.17;3.23;;;;;;;;;;5067150;28;20092;-76
2022/03/27 02:15:06;;;;;;;12.47;3.70;;;;;;;;;;5067069;28;20025;-75
2022/03/27 02:17:33;;;;;;;6.97;3.37;;;;;;;;;;5061177;28;20047;-76
2022/03/27 02:20:00;;;;;;;11.53;3.80;;;;;;;;;;5049024;28;20109;-76
2022/03/27 02:22:26;;;;;;;8.43;3.07;;;;;;;;;;5052405;28;20041;-76
2022/03/27 02:24:53;;;;;;;9.67;2.13;;;;;;;;;;5051496;28;20029;-76
2022/03/27 02:27:20;;;;;;;8.10;1.60;;;;;;;;;;5053213;28;20467;-76
2022/03/27 02:29:46;;;;;;;3.80;1.37;;;;;;;;;;5052131;28;20104;-76
2022/03/27 02:32:14;;;;;;;5.50;1.53;;;;;;;;;;5050457;28;20025;-76
2022/03/27 02:34:42;;;;;;;7.43;1.30;;;;;;;;;;5067059;28;20146;-76
2022/03/27 02:37:08;;;;;;;6.20;1.60;;;;;;;;;;5066673;28;20037;-76
2022/03/27 02:39:35;;;;;;;4.10;1.67;;;;;;;;;;5066988;28;20032;-76
2022/03/27 02:42:02;;;;;;;4.80;2.07;;;;;;;;;;5068337;28;20462;-76
2022/03/27 02:44:29;;;;;;;8.00;2.90;;;;;;;;;;5072109;28;20472;-76
2022/03/27 02:46:56;;;;;;;8.17;1.83;;;;;;;;;;5068960;28;20108;-75
2022/03/27 02:49:23;;;;;;;4.17;2.20;;;;;;;;;;5051840;28;20055;-76
2022/03/27 02:51:49;;;;;;;3.50;1.67;;;;;;;;;;5051709;28;20029;-76
2022/03/27 02:54:16;;;;;;;5.13;1.73;;;;;;;;;;5049813;28;20025;-76
2022/03/27 02:56:43;;;;;;;4.87;2.03;;;;;;;;;;5046824;28;20032;-76
2022/03/27 02:59:10;;;;;;;4.83;1.83;;;;;;;;;;5046790;28;20032;-75
2022/03/27 03:01:37;;;;;;;3.87;1.93;;;;;;;;;;5049477;28;20032;-76
2022/03/27 03:04:04;;;;;;;5.23;1.33;;;;;;;;;;5055991;28;20032;-76
2022/03/27 03:06:33;;;;;;;3.83;1.83;;;;;;;;;;5051551;28;20025;-76
2022/03/27 03:08:59;;;;;;;5.13;2.30;;;;;;;;;;5051186;28;20384;-76
2022/03/27 03:11:26;;;;;;;3.87;1.73;;;;;;;;;;5051769;28;20541;-76
2022/03/27 03:13:53;;;;;;;9.83;2.90;;;;;;;;;;5051642;28;20407;-76
2022/03/27 03:16:21;;;;;;;7.60;2.20;;;;;;;;;;5050088;28;20025;-75
2022/03/27 03:18:48;;;;;;;10.83;2.40;;;;;;;;;;5046356;28;20029;-76
2022/03/27 03:21:16;;;;;;;5.37;2.80;;;;;;;;;;5046503;28;20372;-75
2022/03/27 03:23:42;;;;;;;7.80;1.70;;;;;;;;;;5045873;28;20032;-76
2022/03/27 03:26:10;;;;;;;4.53;1.73;;;;;;;;;;5047259;28;20024;-76
2022/03/27 03:28:37;;;;;;;4.97;1.57;;;;;;;;;;5051639;28;20028;-76
2022/03/27 03:31:05;;;;;;;3.97;1.77;;;;;;;;;;5051352;28;20052;-76
2022/03/27 03:33:32;;;;;;;6.07;1.90;;;;;;;;;;5051664;28;20083;-76
2022/03/27 03:35:59;;;;;;;7.33;1.90;;;;;;;;;;5053833;28;20059;-76
2022/03/27 03:38:26;;;;;;;5.63;1.80;;;;;;;;;;5053870;28;20041;-76
2022/03/27 03:40:52;;;;;;;5.57;1.70;;;;;;;;;;5049583;28;20021;-75
2022/03/27 03:43:20;;;;;;;4.10;2.40;;;;;;;;;;5049762;28;20040;-76
2022/03/27 03:45:47;;;;;;;4.03;1.57;;;;;;;;;;5050896;28;20032;-76
2022/03/27 03:48:14;;;;;;;4.93;1.60;;;;;;;;;;5050198;28;20029;-75
2022/03/27 03:50:41;;;;;;;5.43;1.70;;;;;;;;;;5055000;28;20032;-76
2022/03/27 03:53:08;;;;;;;4.97;1.70;;;;;;;;;;5055015;28;20029;-76
2022/03/27 03:55:34;;;;;;;6.33;2.00;;;;;;;;;;5054787;28;20025;-76
2022/03/27 03:58:02;;;;;;;4.00;1.60;;;;;;;;;;5054563;28;20029;-76
2022/03/27 04:00:29;;;;;;;8.83;1.70;;;;;;;;;;5054141;28;20682;-76
2022/03/27 04:02:55;;;;;;;8.93;2.60;;;;;;;;;;5057549;28;20032;-75
2022/03/27 04:05:22;;;;;;;3.57;1.30;;;;;;;;;;5069645;28;20048;-76
2022/03/27 04:07:49;;;;;;;6.20;1.53;;;;;;;;;;5069475;28;20035;-76
2022/03/27 04:10:16;;;;;;;3.13;1.53;;;;;;;;;;5069414;28;20081;-76
2022/03/27 04:12:43;;;;;;;4.17;1.37;;;;;;;;;;5074125;28;20028;-76
2022/03/27 04:15:11;;;;;;;5.03;1.50;;;;;;;;;;5058580;28;20383;-76
2022/03/27 04:17:44;;;;;;;6.73;1.43;;;;;;;;;;5054450;28;20021;-75
2022/03/27 04:20:12;;;;;;;9.33;2.70;;;;;;;;;;5054395;28;20021;-75
2022/03/27 04:22:40;;;;;;;6.40;2.10;;;;;;;;;;5053791;28;20029;-75
2022/03/27 04:25:07;;;;;;;7.30;2.07;;;;;;;;;;5061337;28;20709;-75
2022/03/27 04:27:35;;;;;;;6.97;2.10;;;;;;;;;;5048973;28;20075;-75
2022/03/27 04:30:03;;;;;;;5.93;2.40;;;;;;;;;;5052019;28;20812;-72
2022/03/27 04:32:30;;;;;;;12.77;2.13;;;;;;;;;;5046444;28;20108;-72
2022/03/27 04:34:57;;;;;;;6.70;2.77;;;;;;;;;;5054237;28;20022;-72
2022/03/27 04:37:24;;;;;;;10.20;3.10;;;;;;;;;;5034181;28;20033;-73
2022/03/27 04:39:51;;;;;;;11.20;2.87;;;;;;;;;;5059267;28;20063;-72
2022/03/27 04:42:18;;;;;;;24.70;4.37;;;;;;;;;;5055292;28;20019;-72
2022/03/27 04:44:44;;;;;;;20.07;5.40;;;;;;;;;;5053804;28;20484;-72
2022/03/27 04:47:11;;;;;;;9.97;4.03;;;;;;;;;;5043108;28;20404;-72
2022/03/27 04:49:38;;;;;;;16.73;4.30;;;;;;;;;;5040707;28;20033;-72
2022/03/27 04:52:05;;;;;;;8.20;3.20;;;;;;;;;;5048787;28;20075;-72
2022/03/27 04:54:32;;;;;;;6.17;3.70;;;;;;;;;;5048877;28;20021;-72
2022/03/27 04:56:59;;;;;;;12.30;4.20;;;;;;;;;;5059949;28;20025;-72
2022/03/27 04:59:26;;;;;;;6.73;3.43;;;;;;;;;;5053795;28;20468;-72
2022/03/27 05:01:52;;;;;;;21.47;8.90;;;;;;;;;;5053734;28;20033;-74
2022/03/27 05:04:19;;;;;;;17.40;7.67;;;;;;;;;;5067428;28;20036;-74
2022/03/27 05:06:46;;;;;;;12.63;5.43;;;;;;;;;;5073004;28;20032;-70
2022/03/27 05:09:13;;;;;;;20.77;8.33;;;;;;;;;;5068079;28;20021;-72
2022/03/27 05:11:39;;;;;;;15.60;6.63;;;;;;;;;;5068147;28;20029;-72
2022/03/27 05:14:06;;;;;;;14.80;7.93;;;;;;;;;;5063448;28;20110;-72
2022/03/27 05:16:33;;;;;;;14.23;5.90;;;;;;;;;;5048324;28;20139;-72
2022/03/27 05:18:59;;;;;;;12.53;6.27;;;;;;;;;;5060709;28;20028;-72
2022/03/27 05:21:27;;;;;;;16.37;6.83;;;;;;;;;;5072993;28;20025;-72
2022/03/27 05:23:53;;;;;;;32.03;9.70;;;;;;;;;;5072881;28;20468;-71
2022/03/27 05:26:21;;;;;;;15.80;6.67;;;;;;;;;;5072996;28;20021;-72
2022/03/27 05:28:48;;;;;;;19.20;9.87;;;;;;;;;;5072746;28;20426;-73
2022/03/27 05:31:14;;;;;;;19.27;8.07;;;;;;;;;;5055391;28;20132;-73
2022/03/27 05:33:41;;;;;;;25.07;8.43;;;;;;;;;;5052515;28;20021;-70
2022/03/27 05:36:09;;;;;;;17.77;7.03;;;;;;;;;;5067510;28;20028;-72
2022/03/27 05:38:38;;;;;;;10.27;5.07;;;;;;;;;;5041030;28;20029;-72
2022/03/27 05:41:05;;;;;;;7.27;3.70;;;;;;;;;;5062070;28;20056;-72
2022/03/27 05:43:31;;;;;;;8.47;3.80;;;;;;;;;;5072223;28;20040;-72
2022/03/27 05:45:58;;;;;;;9.60;4.50;;;;;;;;;;5066830;28;20032;-72
2022/03/27 05:48:25;;;;;;;10.63;4.93;;;;;;;;;;5053258;28;20246;-71
2022/03/27 05:50:51;;;;;;;7.97;3.90;;;;;;;;;;5072910;28;20027;-70
2022/03/27 05:53:18;;;;;;;12.67;4.77;;;;;;;;;;5068421;28;20021;-71
2022/03/27 05:55:47;;;;;;;9.00;4.47;;;;;;;;;;5067288;28;20028;-71
2022/03/27 05:58:14;;;;;;;11.73;5.20;;;;;;;;;;5050620;28;20266;-72
2022/03/27 06:00:41;;;;;;;12.43;4.30;;;;;;;;;;5047096;28;20110;-72
2022/03/27 06:03:08;;;;;;;7.83;2.87;;;;;;;;;;5053917;28;20068;-72
2022/03/27 06:05:35;;;;;;;5.83;2.57;;;;;;;;;;5056862;28;20021;-72
2022/03/27 06:08:01;;;;;;;4.73;2.33;;;;;;;;;;5060443;28;20240;-71
2022/03/27 06:10:31;;;;;;;7.43;2.30;;;;;;;;;;5070296;28;20046;-72
2022/03/27 06:12:58;;;;;;;6.37;2.60;;;;;;;;;;5070007;28;20344;-71
2022/03/27 06:15:25;;;;;;;7.27;2.63;;;;;;;;;;5066468;28;20285;-72
2022/03/27 06:17:53;;;;;;;5.90;2.23;;;;;;;;;;5065584;28;20250;-72
2022/03/27 06:20:24;;;;;;;5.23;2.20;;;;;;;;;;5054239;28;20345;-72
2022/03/27 06:22:51;;;;;;;6.50;2.20;;;;;;;;;;5046938;28;20289;-72
2022/03/27 06:25:19;;;;;;;7.53;2.27;;;;;;;;;;5058115;28;20687;-72
2022/03/27 06:27:48;;;;;;;6.50;2.33;;;;;;;;;;5071983;28;20272;-71
2022/03/27 06:30:18;;;;;;;8.73;2.10;;;;;;;;;;5071406;28;20301;-72
2022/03/27 06:32:46;;;;;;;7.60;2.40;;;;;;;;;;5071975;28;20265;-71
2022/03/27 06:35:13;;;;;;;7.83;2.50;;;;;;;;;;5059809;28;20369;-72
2022/03/27 06:37:40;;;;;;;5.53;2.10;;;;;;;;;;5047378;28;20707;-71
2022/03/27 06:40:08;;;;;;;9.83;1.97;;;;;;;;;;5066590;28;20269;-71
2022/03/27 06:42:35;;;;;;;4.27;1.87;;;;;;;;;;5066469;28;20342;-71
2022/03/27 06:45:02;;;;;;;6.80;2.10;;;;;;;;;;5065878;28;20273;-72
2022/03/27 06:47:29;;;;;;;5.33;2.10;;;;;;;;;;5064432;28;20629;-72
2022/03/27 06:49:56;;;;;;;7.77;3.40;;;;;;;;;;5057504;28;20281;-71
2022/03/27 06:52:23;;;;;;;5.73;2.67;;;;;;;;;;5072160;28;20336;-72
2022/03/27 06:54:50;;;;;;;4.97;2.63;;;;;;;;;;5060954;28;20270;-71
2022/03/27 06:57:17;;;;;;;7.70;2.30;;;;;;;;;;5051700;28;20319;-72
2022/03/27 07:05:14;;;;;;;;;;;;;;;;;;5035023;28;20146;-72
2022/03/27 07:07:45;;;;;;;5.67;2.63;;;;;;;;;;5062679;28;20361;-72
2022/03/27 07:10:12;;;;;;;4.97;2.23;;;;;;;;;;5056638;28;20272;-71
2022/03/27 07:12:39;;;;;;;8.33;2.30;;;;;;;;;;5075335;28;20831;-71
2022/03/27 07:15:06;;;;;;;5.70;2.77;;;;;;;;;;5075307;28;20300;-72
2022/03/27 07:17:33;;;;;;;8.57;3.13;;;;;;;;;;5075135;28;20296;-72
2022/03/27 07:20:00;;;;;;;10.77;2.70;;;;;;;;;;5068106;28;20678;-72
2022/03/27 07:22:26;;;;;;;7.33;2.93;;;;;;;;;;5050321;28;20254;-71
2022/03/27 07:24:53;;;;;;;5.57;2.57;;;;;;;;;;5049843;28;20309;-72
2022/03/27 07:27:20;;;;;;;5.83;3.27;;;;;;;;;;5050200;28;20262;-72
2022/03/27 07:29:46;;;;;;;8.30;3.20;;;;;;;;;;5049998;28;20281;-71
2022/03/27 07:32:13;;;;;;;7.10;3.30;;;;;;;;;;5068891;28;20729;-72
2022/03/27 07:34:40;;;;;;;6.80;2.53;;;;;;;;;;5067096;28;20262;-72
2022/03/27 07:37:08;;;;;;;6.17;2.83;;;;;;;;;;5055181;28;20258;-72
2022/03/27 07:39:35;;;;;;;10.47;3.63;;;;;;;;;;5054322;28;20302;-71
2022/03/27 07:42:02;;;;;;;11.70;2.97;;;;;;;;;;5065498;28;20272;-72
2022/03/27 07:44:29;;;;;;;9.47;4.00;;;;;;;;;;5070103;28;20786;-72
2022/03/27 07:46:58;;;;;;;12.43;4.20;;;;;;;;;;5069509;28;20360;-72
2022/03/27 07:49:25;;;;;;;12.63;3.70;;;;;;;;;;5069759;28;20677;-72
2022/03/27 07:51:53;;;;;;;17.30;4.83;;;;;;;;;;5058393;28;20741;-72
2022/03/27 07:54:19;;;;;;;11.67;4.17;;;;;;;;;;5067563;28;20266;-71
2022/03/27 07:56:46;;;;;;;15.47;4.17;;;;;;;;;;5062856;28;20779;-72
2022/03/27 07:59:13;;;;;;;12.00;4.83;;;;;;;;;;5061828;28;20936;-72
2022/03/27 08:01:39;;;;;;;8.80;3.67;;;;;;;;;;5074432;28;20359;-72
2022/03/27 08:04:06;;;;;;;12.80;4.67;;;;;;;;;;5074870;28;20289;-71
2022/03/27 08:06:36;;;;;;;10.00;3.53;;;;;;;;;;5061337;28;20808;-73
2022/03/27 08:09:08;;;;;;;10.13;4.77;;;;;;;;;;5049190;28;20625;-72
2022/03/27 08:11:41;;;;;;;14.40;4.60;;;;;;;;;;5049086;28;20274;-72
2022/03/27 08:14:10;;;;;;;11.67;3.73;;;;;;;;;;5061998;28;20265;-72
2022/03/27 08:16:37;;;;;;;10.47;3.97;;;;;;;;;;5072937;28;20303;-71
2022/03/27 08:19:04;;;;;;;11.97;3.60;;;;;;;;;;5065358;28;20265;-71
2022/03/27 08:21:31;;;;;;;8.87;3.27;;;;;;;;;;5053341;28;20753;-72
2022/03/27 08:23:58;;;;;;;12.60;4.10;;;;;;;;;;5054987;28;20769;-72
2022/03/27 08:29:10;;;;;;;8.77;3.78;;;;;;;;;;5048913;28;20276;-72
2022/03/27 08:31:37;;;;;;;8.47;3.50;;;;;;;;;;5048920;28;20108;-72
2022/03/27 08:34:04;;;;;;;7.77;2.77;;;;;;;;;;5060819;28;20375;-72
2022/03/27 08:36:31;;;;;;;14.03;4.23;;;;;;;;;;5068548;28;20331;-72
2022/03/27 08:38:57;;;;;;;11.53;4.43;;;;;;;;;;5036815;28;20254;-72
2022/03/27 08:41:24;;;;;;;17.83;5.33;;;;;;;;;;5054044;28;20265;-71
2022/03/27 08:43:58;;;;;;;8.13;3.33;;;;;;;;;;5053872;28;20766;-71
2022/03/27 08:46:28;;;;;;;11.13;3.50;;;;;;;;;;5068524;28;20265;-71
2022/03/27 08:48:59;;;;;;;6.93;3.10;;;;;;;;;;5062386;28;20741;-72
2022/03/27 08:51:29;;;;;;;9.90;2.77;;;;;;;;;;5048621;28;20269;-72
2022/03/27 08:54:06;;;;;;;10.67;2.90;;;;;;;;;;5048304;28;20273;-72
2022/03/27 08:56:34;;;;;;;6.30;2.70;;;;;;;;;;5051152;28;20632;-72
2022/03/27 08:59:11;;;;;;;5.47;2.40;;;;;;;;;;5049095;28;20266;-72
2022/03/27 09:01:39;;;;;;;6.33;2.57;;;;;;;;;;5070237;28;20840;-72
2022/03/27 09:04:06;;;;;;;6.60;3.03;;;;;;;;;;5073378;28;20338;-71
2022/03/27 09:06:33;;;;;;;4.50;2.20;;;;;;;;;;5066671;28;20787;-72
2022/03/27 09:08:59;;;;;;;4.23;2.10;;;;;;;;;;5053492;28;20258;-72
2022/03/27 09:11:32;;;;;;;8.03;2.33;;;;;;;;;;5058450;28;20356;-72
2022/03/27 09:13:59;;;;;;;10.47;3.40;;;;;;;;;;5068194;28;20276;-72
2022/03/27 09:16:26;;;;;;;8.03;3.63;;;;;;;;;;5058826;28;20269;-72
2022/03/27 09:19:01;;;;;;;12.07;3.40;;;;;;;;;;5064503;28;20262;-71
2022/03/27 09:21:28;;;;;;;5.90;2.78;;;;;;;;;;5049564;28;20269;-72
2022/03/27 09:23:57;;;;;;;6.93;2.63;;;;;;;;;;5073094;28;20028;-72
2022/03/27 09:26:23;;;;;;;8.90;3.43;;;;;;;;;;5067095;28;20791;-72
2022/03/27 09:28:54;;;;;;;13.43;4.57;;;;;;;;;;5053078;28;20298;-72
2022/03/27 09:31:25;;;;;;;12.93;4.33;;;;;;;;;;5053131;28;20290;-71
2022/03/27 09:33:52;;;;;;;12.23;4.10;;;;;;;;;;5058339;28;20273;-72
2022/03/27 09:36:23;;;;;;;10.03;3.87;;;;;;;;;;5067313;28;20775;-71
2022/03/27 09:38:59;;;;;;;10.03;4.40;;;;;;;;;;5066808;28;20272;-72
2022/03/27 09:41:44;;;;;;;7.53;3.20;;;;;;;;;;5067189;28;20267;-72
2022/03/27 09:44:12;;;;;;;9.90;3.77;;;;;;;;;;5059263;28;20286;-71
2022/03/27 09:46:51;;;;;;;8.17;3.30;;;;;;;;;;5052689;28;20265;-71
2022/03/27 09:49:19;;;;;;;9.20;3.67;;;;;;;;;;5065201;28;20302;-71
2022/03/27 09:51:57;;;;;;;11.97;4.63;;;;;;;;;;5072362;28;20293;-71
2022/03/27 09:54:24;;;;;;;19.80;5.13;;;;;;;;;;5057372;28;20320;-72
2022/03/27 09:56:51;;;;;;;12.87;4.27;;;;;;;;;;5049876;28;20270;-72
2022/03/27 09:59:27;;;;;;;10.90;4.67;;;;;;;;;;5047123;28;20345;-72
2022/03/27 10:01:54;;;;;;;10.37;4.03;;;;;;;;;;5055913;28;20269;-71
2022/03/27 10:04:20;;;;;;;10.93;3.63;;;;;;;;;;5062332;28;20328;-72
2022/03/27 10:06:47;;;;;;;8.97;3.30;;;;;;;;;;5049648;28;20270;-72
2022/03/27 10:09:14;;;;;;;8.90;3.23;;;;;;;;;;5052515;28;20594;-72
2022/03/27 10:11:43;;;;;;;7.83;3.40;;;;;;;;;;5052019;28;20321;-71
2022/03/27 10:14:10;;;;;;;14.40;2.80;;;;;;;;;;5052292;28;20333;-72
2022/03/27 10:16:38;;;;;;;10.83;2.70;;;;;;;;;;5052242;28;20269;-71
2022/03/27 10:19:14;;;;;;;6.07;2.47;;;;;;;;;;5055238;28;20289;-72
2022/03/27 10:21:43;;;;;;;5.57;2.13;;;;;;;;;;5066875;28;21123;-72
2022/03/27 10:24:17;;;;;;;5.63;2.30;;;;;;;;;;5066149;28;20376;-72
2022/03/27 10:26:44;;;;;;;8.90;2.70;;;;;;;;;;5066697;28;20265;-72
2022/03/27 10:29:12;;;;;;;7.73;2.43;;;;;;;;;;5069829;28;20605;-72
2022/03/27 10:31:39;;;;;;;5.90;2.03;;;;;;;;;;5071898;28;20261;-72
2022/03/27 10:34:07;;;;;;;5.93;2.47;;;;;;;;;;5062273;28;20285;-71
2022/03/27 10:36:53;;;;;;;4.43;2.13;;;;;;;;;;5051940;28;20627;-71
2022/03/27 10:39:28;;;;;;;4.53;2.08;;;;;;;;;;5054508;28;20284;-71
2022/03/27 10:41:57;;;;;;;4.85;2.60;;;;;;;;;;5065965;28;20035;-72
2022/03/27 10:44:29;;;;;;;7.97;3.20;;;;;;;;;;5059960;28;20052;-71
2022/03/27 10:47:15;;;;;;;11.50;3.63;;;;;;;;;;5063448;28;20305;-72
2022/03/27 10:49:43;;;;;;;4.80;2.20;;;;;;;;;;5063812;28;20304;-71
2022/03/27 10:52:10;;;;;;;6.80;2.60;;;;;;;;;;5058569;28;20268;-71
2022/03/27 10:55:09;;;;;;;3.70;2.00;;;;;;;;;;5056042;28;20721;-72
2022/03/27 10:57:43;;;;;;;9.90;3.30;;;;;;;;;;5022629;28;20286;-71
2022/03/27 11:00:11;;;;;;;9.00;3.47;;;;;;;;;;5056032;28;20316;-71
2022/03/27 11:02:53;;;;;;;8.83;3.30;;;;;;;;;;5054527;28;20309;-72
2022/03/27 11:05:32;;;;;;;6.70;2.50;;;;;;;;;;5050507;28;20284;-72
2022/03/27 11:08:17;;;;;;;8.33;3.70;;;;;;;;;;5063377;28;20269;-71
2022/03/27 11:10:44;;;;;;;5.75;2.67;;;;;;;;;;5050145;28;20819;-71
2022/03/27 11:13:30;;;;;;;11.30;2.90;;;;;;;;;;5052300;28;20032;-71
2022/03/27 11:16:08;;;;;;;6.10;2.37;;;;;;;;;;5055685;28;20255;-71
2022/03/27 11:18:39;;;;;;;4.97;2.07;;;;;;;;;;5055571;28;20764;-72
2022/03/27 11:21:07;;;;;;;4.60;2.07;;;;;;;;;;5056722;28;20269;-71
2022/03/27 11:23:41;;;;;;;5.13;2.60;;;;;;;;;;5074027;28;20679;-71
2022/03/27 11:26:23;;;;;;;4.87;1.90;;;;;;;;;;5071159;28;20269;-72
2022/03/27 11:28:51;;;;;;;7.40;2.50;;;;;;;;;;5069952;28;20262;-71
2022/03/27 11:31:19;;;;;;;7.63;3.00;;;;;;;;;;5069848;28;20357;-72
2022/03/27 11:34:06;;;;;;;8.27;3.80;;;;;;;;;;5060404;28;20274;-72
2022/03/27 11:36:33;;;;;;;5.40;2.77;;;;;;;;;;5054435;28;20344;-71
2022/03/27 11:39:04;;;;;;;7.63;2.90;;;;;;;;;;5055025;28;20265;-72
2022/03/27 11:41:47;;;;;;;6.07;2.37;;;;;;;;;;5055083;28;20284;-71
2022/03/27 11:44:23;;;;;;;5.83;2.00;;;;;;;;;;5054996;28;20297;-71
2022/03/27 11:46:52;;;;;;;5.97;2.40;;;;;;;;;;5059832;28;20752;-71
2022/03/27 11:49:19;;;;;;;6.40;2.47;;;;;;;;;;5069400;28;20334;-71
2022/03/27 11:51:47;;;;;;;8.70;3.23;;;;;;;;;;5063541;28;20266;-71
2022/03/27 11:54:20;;;;;;;7.27;3.27;;;;;;;;;;5049541;28;20420;-71
2022/03/27 11:56:54;;;;;;;7.77;2.47;;;;;;;;;;5048605;28;20263;-71
2022/03/27 11:59:22;;;;;;;5.87;2.40;;;;;;;;;;5054885;28;20726;-71
2022/03/27 12:01:52;;;;;;;7.10;2.50;;;;;;;;;;5059588;28;20288;-71
2022/03/27 12:04:19;;;;;;;6.03;2.50;;;;;;;;;;5074900;28;20404;-71
2022/03/27 12:06:46;;;;;;;8.17;2.80;;;;;;;;;;5074387;28;20284;-71
2022/03/27 12:09:26;;;;;;;6.20;3.17;;;;;;;;;;5073334;28;20253;-72
2022/03/27 12:12:13;;;;;;;5.23;2.47;;;;;;;;;;5061473;28;20573;-71
2022/03/27 12:15:02;;;;;;;6.93;3.53;;;;;;;;;;5049134;28;20273;-71
2022/03/27 12:17:31;;;;;;;8.23;2.83;;;;;;;;;;5049289;28;20305;-71
2022/03/27 12:20:09;;;;;;;5.13;2.27;;;;;;;;;;5051885;28;20250;-71
2022/03/27 12:22:53;;;;;;;6.97;2.87;;;;;;;;;;5060817;28;20648;-71
2022/03/27 12:25:20;;;;;;;8.13;3.07;;;;;;;;;;5065635;28;20302;-71
2022/03/27 12:30:49;;;;;;;12.63;4.10;;;;;;;;;;5074538;28;20267;-71
2022/03/27 12:33:19;;;;;;;14.93;4.60;;;;;;;;;;5068585;28;20279;-71
2022/03/27 12:35:47;;;;;;;18.63;6.03;;;;;;;;;;5061580;28;20614;-71
2022/03/27 12:38:14;;;;;;;21.00;7.27;;;;;;;;;;5067436;28;20287;-71
2022/03/27 12:40:45;;;;;;;23.70;7.40;;;;;;;;;;5068099;28;20261;-71
2022/03/27 12:43:13;;;;;;;19.80;7.23;;;;;;;;;;5072031;28;20297;-71
2022/03/27 12:45:41;;;;;;;19.53;6.17;;;;;;;;;;5073663;28;20297;-71
2022/03/27 12:48:18;;;;;;;22.13;6.37;;;;;;;;;;5059964;28;20745;-71
2022/03/27 12:50:51;;;;;;;22.37;6.20;;;;;;;;;;5053892;28;20262;-71
2022/03/27 12:53:26;;;;;;;11.07;4.33;;;;;;;;;;5068727;28;20798;-72
2022/03/27 12:55:54;;;;;;;15.30;4.30;;;;;;;;;;5048575;28;20822;-71
2022/03/27 12:58:23;;;;;;;13.23;4.13;;;;;;;;;;5048436;28;20542;-71
2022/03/27 13:01:08;;;;;;;13.03;4.57;;;;;;;;;;5050299;28;20345;-72
2022/03/27 13:03:36;;;;;;;9.77;3.40;;;;;;;;;;5049476;28;20353;-71
2022/03/27 13:06:04;;;;;;;12.87;3.27;;;;;;;;;;5053346;28;20088;-71
2022/03/27 13:08:34;;;;;;;7.47;3.10;;;;;;;;;;5052817;28;20254;-71
2022/03/27 13:11:06;;;;;;;7.10;2.93;;;;;;;;;;5053442;28;20749;-71
2022/03/27 13:13:33;;;;;;;12.00;3.60;;;;;;;;;;5053239;28;20278;-71
2022/03/27 13:16:00;;;;;;;7.17;2.53;;;;;;;;;;5051374;28;20744;-71
2022/03/27 13:18:33;;;;;;;10.67;3.30;;;;;;;;;;5047884;28;20281;-71
2022/03/27 13:21:14;;;;;;;6.43;3.00;;;;;;;;;;5049192;28;20265;-72
2022/03/27 13:23:41;;;;;;;9.37;3.70;;;;;;;;;;5067530;28;20292;-71
2022/03/27 13:26:08;;;;;;;13.77;5.03;;;;;;;;;;5065652;28;20266;-71
2022/03/27 13:28:34;;;;;;;10.00;3.57;;;;;;;;;;5072440;28;20272;-72
2022/03/27 13:31:01;;;;;;;10.70;3.07;;;;;;;;;;5072876;28;20261;-72
2022/03/27 13:33:28;;;;;;;11.60;3.50;;;;;;;;;;5061129;28;20272;-72
2022/03/27 13:35:56;;;;;;;13.93;4.37;;;;;;;;;;5060937;28;20331;-72
2022/03/27 13:38:23;;;;;;;9.47;4.13;;;;;;;;;;5070029;28;20261;-72
2022/03/27 13:43:34;;;;;;;12.95;4.57;;;;;;;;;;5054170;28;20324;-73
2022/03/27 13:46:01;;;;;;;14.20;3.97;;;;;;;;;;5047447;28;20021;-72
2022/03/27 13:48:28;;;;;;;12.27;4.00;;;;;;;;;;5050082;28;20258;-72
2022/03/27 13:50:54;;;;;;;11.00;4.17;;;;;;;;;;5052844;28;20266;-72
2022/03/27 13:53:22;;;;;;;11.27;3.20;;;;;;;;;;5052482;28;20265;-71
2022/03/27 13:55:48;;;;;;;8.97;3.30;;;;;;;;;;5052690;28;20320;-72
2022/03/27 13:58:15;;;;;;;10.60;4.07;;;;;;;;;;5052531;28;20269;-72
2022/03/27 14:00:42;;;;;;;13.23;5.27;;;;;;;;;;5049398;28;20759;-72
2022/03/27 14:03:08;;;;;;;10.53;4.50;;;;;;;;;;5047065;28;20294;-72
2022/03/27 14:05:35;;;;;;;9.60;3.57;;;;;;;;;;5047386;28;20348;-72
2022/03/27 14:08:02;;;;;;;9.60;3.57;;;;;;;;;;5047454;28;20265;-72
2022/03/27 14:10:29;;;;;;;6.47;3.40;;;;;;;;;;5065319;28;20257;-72
2022/03/27 14:12:56;;;;;;;7.20;3.33;;;;;;;;;;5052392;28;20052;-72
2022/03/27 14:15:23;;;;;;;12.80;3.50;;;;;;;;;;5063518;28;20034;-72
2022/03/27 14:17:51;;;;;;;9.03;3.87;;;;;;;;;;5071992;28;20033;-72
2022/03/27 14:20:18;;;;;;;13.77;3.90;;;;;;;;;;5056039;28;20025;-72
2022/03/27 14:22:45;;;;;;;9.17;4.00;;;;;;;;;;5049561;28;20078;-72
2022/03/27 14:25:13;;;;;;;11.60;4.27;;;;;;;;;;5046992;28;20025;-72
2022/03/27 14:27:40;;;;;;;8.53;3.90;;;;;;;;;;5056476;28;20058;-72
2022/03/27 14:30:15;;;;;;;14.50;4.07;;;;;;;;;;5066413;28;20032;-72
2022/03/27 14:32:44;;;;;;;7.38;3.67;;;;;;;;;;5069421;28;20025;-72
2022/03/27 14:35:12;;;;;;;8.30;3.40;;;;;;;;;;5054892;28;20033;-72
2022/03/27 14:37:39;;;;;;;14.40;3.30;;;;;;;;;;5051956;28;20020;-72
2022/03/27 14:40:07;;;;;;;5.90;2.87;;;;;;;;;;5061944;28;20028;-72
2022/03/27 14:42:34;;;;;;;11.23;3.10;;;;;;;;;;5066399;28;20110;-72
2022/03/27 14:45:01;;;;;;;6.77;3.53;;;;;;;;;;5049219;28;20024;-73
2022/03/27 14:47:32;;;;;;;10.57;4.20;;;;;;;;;;5046907;28;20064;-72
2022/03/27 14:50:00;;;;;;;10.87;3.10;;;;;;;;;;5061835;28;20031;-72
2022/03/27 14:52:27;;;;;;;10.00;3.70;;;;;;;;;;5066553;28;20032;-72
2022/03/27 14:57:39;;;;;;;10.18;4.20;;;;;;;;;;5056670;28;20064;-72
2022/03/27 15:00:07;;;;;;;10.43;4.07;;;;;;;;;;5071400;28;20039;-72
2022/03/27 15:02:33;;;;;;;9.07;4.50;;;;;;;;;;5071978;28;20108;-72
2022/03/27 15:05:00;;;;;;;13.53;4.90;;;;;;;;;;5071525;28;20032;-72
2022/03/27 15:07:26;;;;;;;13.97;4.93;;;;;;;;;;5063815;28;20028;-72